createdAt,value
2023-04-10T00:00:33.725Z,100.00
2023-04-10T00:01:36.580Z,100.00
2023-04-10T00:02:39.269Z,100.00
2023-04-10T00:04:57.177Z,100.00
2023-04-10T00:05:59.770Z,100.00
2023-04-10T00:07:02.307Z,100.00
2023-04-10T00:08:04.932Z,100.00
2023-04-10T00:09:08.049Z,100.00
2023-04-10T00:10:11.059Z,100.00
2023-04-10T00:11:13.699Z,100.00
2023-04-10T00:12:16.335Z,100.00
2023-04-10T00:13:18.740Z,100.00
2023-04-10T00:14:23.420Z,100.00
2023-04-10T00:15:26.091Z,100.00
2023-04-10T00:16:28.651Z,100.00
2023-04-10T00:17:31.253Z,100.00
2023-04-10T00:18:33.736Z,100.00
2023-04-10T00:19:36.395Z,100.00
2023-04-10T00:20:38.898Z,100.00
2023-04-10T00:21:41.690Z,100.00
2023-04-10T00:22:44.178Z,100.00
2023-04-10T00:23:46.723Z,100.00
2023-04-10T00:24:49.221Z,100.00
2023-04-10T00:25:51.823Z,100.00
2023-04-10T00:26:54.388Z,100.00
2023-04-10T00:27:56.908Z,100.00
2023-04-10T00:28:59.549Z,100.00
2023-04-10T00:30:02.787Z,100.00
2023-04-10T00:31:05.788Z,100.00
2023-04-10T00:32:08.602Z,100.00
2023-04-10T00:33:11.281Z,100.00
2023-04-10T00:34:14.273Z,100.00
2023-04-10T00:35:16.959Z,100.00
2023-04-10T00:36:19.750Z,100.00
2023-04-10T00:37:22.350Z,100.00
2023-04-10T00:38:24.874Z,100.00
2023-04-10T00:39:27.520Z,100.00
2023-04-10T00:40:30.541Z,100.00
2023-04-10T00:41:33.525Z,100.00
2023-04-10T00:42:36.036Z,100.00
2023-04-10T00:43:39.401Z,100.00
2023-04-10T00:44:42.035Z,100.00
2023-04-10T00:45:44.834Z,100.00
2023-04-10T00:46:47.323Z,100.00
2023-04-10T00:47:49.997Z,100.00
2023-04-10T00:48:53.318Z,100.00
2023-04-10T00:49:55.968Z,100.00
2023-04-10T00:50:58.478Z,100.00
2023-04-10T00:52:01.496Z,100.00
2023-04-10T00:53:04.242Z,100.00
2023-04-10T00:54:06.881Z,100.00
2023-04-10T00:55:11.204Z,100.00
2023-04-10T00:56:14.561Z,100.00
2023-04-10T00:57:17.924Z,100.00
2023-04-10T00:58:20.446Z,100.00
2023-04-10T00:59:23.204Z,100.00
2023-04-10T01:00:26.158Z,100.00
2023-04-10T01:01:28.804Z,100.00
2023-04-10T01:02:32.489Z,100.00
2023-04-10T01:03:35.987Z,100.00
2023-04-10T01:04:39.888Z,100.00
2023-04-10T01:05:51.646Z,100.00
2023-04-10T01:07:10.368Z,100.00
2023-04-10T01:08:39.408Z,100.00
2023-04-10T01:09:47.716Z,100.00
2023-04-10T01:11:25.140Z,100.00
2023-04-10T01:12:56.337Z,100.00
2023-04-10T01:14:16.613Z,100.00
2023-04-10T01:15:22.490Z,100.00
2023-04-10T01:16:34.896Z,100.00
2023-04-10T01:17:40.564Z,100.00
2023-04-10T01:19:18.902Z,100.00
2023-04-10T01:20:24.068Z,100.00
2023-04-10T01:21:28.255Z,100.00
2023-04-10T01:22:59.696Z,100.00
2023-04-10T01:24:29.820Z,100.00
2023-04-10T01:25:56.459Z,100.00
2023-04-10T01:27:20.581Z,100.00
2023-04-10T01:28:51.790Z,100.00
2023-04-10T01:29:58.025Z,100.00
2023-04-10T01:31:02.902Z,100.00
2023-04-10T01:32:11.708Z,100.00
2023-04-10T01:33:18.925Z,100.00
2023-04-10T01:34:39.263Z,100.00
2023-04-10T01:35:44.305Z,100.00
2023-04-10T01:36:52.270Z,100.00
2023-04-10T01:37:56.230Z,100.00
2023-04-10T01:38:59.113Z,100.00
2023-04-10T01:40:04.150Z,100.00
2023-04-10T01:41:07.750Z,100.00
2023-04-10T01:42:14.487Z,100.00
2023-04-10T01:43:19.874Z,100.00
2023-04-10T01:44:30.324Z,100.00
2023-04-10T01:45:33.807Z,100.00
2023-04-10T01:46:38.520Z,100.00
2023-04-10T01:47:41.166Z,100.00
2023-04-10T01:48:45.076Z,100.00
2023-04-10T01:49:50.119Z,100.00
2023-04-10T01:50:54.201Z,100.00
2023-04-10T01:51:58.767Z,100.00
2023-04-10T01:53:05.970Z,100.00
2023-04-10T01:54:09.223Z,100.00
2023-04-10T01:55:12.319Z,100.00
2023-04-10T01:56:20.613Z,100.00
2023-04-10T01:57:23.602Z,100.00
2023-04-10T01:58:29.248Z,100.00
2023-04-10T01:59:32.966Z,100.00
2023-04-10T02:00:43.509Z,100.00
2023-04-10T02:01:47.570Z,100.00
2023-04-10T02:02:51.106Z,100.00
2023-04-10T02:03:54.018Z,100.00
2023-04-10T02:04:56.885Z,100.00
2023-04-10T02:06:20.979Z,100.00
2023-04-10T02:07:31.651Z,100.00
2023-04-10T02:08:42.820Z,100.00
2023-04-10T02:10:00.697Z,100.00
2023-04-10T02:11:22.895Z,100.00
2023-04-10T02:12:30.456Z,100.00
2023-04-10T02:13:35.860Z,100.00
2023-04-10T02:14:43.062Z,100.00
2023-04-10T02:15:47.904Z,100.00
2023-04-10T02:16:54.583Z,100.00
2023-04-10T02:18:00.020Z,100.00
2023-04-10T02:19:04.055Z,100.00
2023-04-10T02:20:09.234Z,100.00
2023-04-10T02:21:11.876Z,100.00
2023-04-10T02:22:17.738Z,100.00
2023-04-10T02:23:21.246Z,100.00
2023-04-10T02:24:23.874Z,100.00
2023-04-10T02:25:26.500Z,100.00
2023-04-10T02:26:29.031Z,100.00
2023-04-10T02:27:36.567Z,100.00
2023-04-10T02:28:40.320Z,100.00
2023-04-10T02:29:42.823Z,100.00
2023-04-10T02:30:45.462Z,100.00
2023-04-10T02:31:49.216Z,100.00
2023-04-10T02:32:51.909Z,100.00
2023-04-10T02:33:54.624Z,100.00
2023-04-10T02:34:57.706Z,100.00
2023-04-10T02:36:03.130Z,100.00
2023-04-10T02:37:05.627Z,100.00
2023-04-10T02:38:08.185Z,100.00
2023-04-10T02:39:13.204Z,100.00
2023-04-10T02:40:23.754Z,100.00
2023-04-10T02:41:38.628Z,100.00
2023-04-10T02:42:41.638Z,100.00
2023-04-10T02:43:44.166Z,100.00
2023-04-10T02:44:48.236Z,100.00
2023-04-10T02:45:51.374Z,100.00
2023-04-10T02:47:01.527Z,100.00
2023-04-10T02:48:07.015Z,100.00
2023-04-10T02:49:09.969Z,100.00
2023-04-10T02:50:12.492Z,100.00
2023-04-10T02:51:18.599Z,100.00
2023-04-10T02:52:21.605Z,100.00
2023-04-10T02:53:26.158Z,100.00
2023-04-10T02:54:32.519Z,100.00
2023-04-10T02:55:35.043Z,100.00
2023-04-10T02:56:37.681Z,100.00
2023-04-10T02:57:40.022Z,100.00
2023-04-10T02:58:46.208Z,100.00
2023-04-10T02:59:52.457Z,100.00
2023-04-10T03:00:57.966Z,100.00
2023-04-10T03:02:21.902Z,100.00
2023-04-10T03:03:25.182Z,100.00
2023-04-10T03:04:32.696Z,100.00
2023-04-10T03:05:35.771Z,100.00
2023-04-10T03:06:38.421Z,100.00
2023-04-10T03:07:41.662Z,100.00
2023-04-10T03:08:44.651Z,100.00
2023-04-10T03:09:47.528Z,100.00
2023-04-10T03:10:50.804Z,100.00
2023-04-10T03:11:53.301Z,100.00
2023-04-10T03:12:56.175Z,100.00
2023-04-10T03:13:58.701Z,100.00
2023-04-10T03:15:01.333Z,100.00
2023-04-10T03:16:04.064Z,100.00
2023-04-10T03:17:07.583Z,100.00
2023-04-10T03:18:11.336Z,100.00
2023-04-10T03:19:16.460Z,100.00
2023-04-10T03:20:18.978Z,100.00
2023-04-10T03:21:22.097Z,100.00
2023-04-10T03:22:24.979Z,100.00
2023-04-10T03:23:27.623Z,100.00
2023-04-10T03:24:30.509Z,100.00
2023-04-10T03:25:36.632Z,100.00
2023-04-10T03:26:40.939Z,100.00
2023-04-10T03:27:43.470Z,100.00
2023-04-10T03:28:45.983Z,100.00
2023-04-10T03:29:48.388Z,100.00
2023-04-10T03:30:51.263Z,100.00
2023-04-10T03:31:53.841Z,100.00
2023-04-10T03:32:56.440Z,100.00
2023-04-10T03:33:59.068Z,100.00
2023-04-10T03:35:01.596Z,100.00
2023-04-10T03:36:05.112Z,100.00
2023-04-10T03:37:08.910Z,100.00
2023-04-10T03:38:11.434Z,100.00
2023-04-10T03:39:13.832Z,100.00
2023-04-10T03:40:16.359Z,100.00
2023-04-10T03:41:18.995Z,100.00
2023-04-10T03:42:21.512Z,100.00
2023-04-10T03:43:25.591Z,100.00
2023-04-10T03:44:28.118Z,100.00
2023-04-10T03:45:30.873Z,100.00
2023-04-10T03:46:35.391Z,100.00
2023-04-10T03:47:38.020Z,100.00
2023-04-10T03:48:43.247Z,100.00
2023-04-10T03:49:46.232Z,100.00
2023-04-10T03:50:48.770Z,100.00
2023-04-10T03:51:51.637Z,100.00
2023-04-10T03:52:54.043Z,100.00
2023-04-10T03:53:58.489Z,100.00
2023-04-10T03:55:00.906Z,100.00
2023-04-10T03:56:04.360Z,100.00
2023-04-10T03:57:06.881Z,100.00
2023-04-10T03:58:09.525Z,100.00
2023-04-10T03:59:13.121Z,100.00
2023-04-10T04:00:17.330Z,100.00
2023-04-10T04:01:22.994Z,100.00
2023-04-10T04:02:52.094Z,100.00
2023-04-10T04:04:33.254Z,100.00
2023-04-10T04:05:54.646Z,100.00
2023-04-10T04:07:17.336Z,100.00
2023-04-10T04:08:32.929Z,100.00
2023-04-10T04:09:48.049Z,100.00
2023-04-10T04:10:58.968Z,100.00
2023-04-10T04:12:30.657Z,100.00
2023-04-10T04:13:37.612Z,100.00
2023-04-10T04:14:46.850Z,100.00
2023-04-10T04:16:14.848Z,100.00
2023-04-10T04:17:23.469Z,100.00
2023-04-10T04:18:52.138Z,100.00
2023-04-10T04:20:03.669Z,100.00
2023-04-10T04:21:18.179Z,100.00
2023-04-10T04:22:38.940Z,100.00
2023-04-10T04:24:12.776Z,100.00
2023-04-10T04:25:36.781Z,100.00
2023-04-10T04:26:57.908Z,100.00
2023-04-10T04:28:23.480Z,100.00
2023-04-10T04:29:52.020Z,100.00
2023-04-10T04:31:09.419Z,100.00
2023-04-10T04:32:30.321Z,100.00
2023-04-10T04:33:42.674Z,100.00
2023-04-10T04:35:03.786Z,100.00
2023-04-10T04:36:38.594Z,100.00
2023-04-10T04:38:10.629Z,100.00
2023-04-10T04:39:39.431Z,100.00
2023-04-10T04:40:59.838Z,100.00
2023-04-10T04:42:21.325Z,100.00
2023-04-10T04:43:38.951Z,100.00
2023-04-10T04:45:04.170Z,100.00
2023-04-10T04:46:35.712Z,100.00
2023-04-10T04:47:56.920Z,100.00
2023-04-10T04:49:09.809Z,100.00
2023-04-10T04:50:23.117Z,100.00
2023-04-10T04:51:41.003Z,100.00
2023-04-10T04:52:49.041Z,100.00
2023-04-10T04:54:00.797Z,100.00
2023-04-10T04:55:29.721Z,100.00
2023-04-10T04:56:45.804Z,100.00
2023-04-10T04:58:21.323Z,100.00
2023-04-10T04:59:42.204Z,100.00
2023-04-10T05:00:56.890Z,100.00
2023-04-10T05:02:23.218Z,100.00
2023-04-10T05:03:52.205Z,100.00
2023-04-10T05:05:11.962Z,100.00
2023-04-10T05:06:41.017Z,100.00
2023-04-10T05:08:03.811Z,100.00
2023-04-10T05:09:21.931Z,100.00
2023-04-10T05:10:42.809Z,100.00
2023-04-10T05:11:57.334Z,100.00
2023-04-10T05:13:19.769Z,100.00
2023-04-10T05:14:30.450Z,100.00
2023-04-10T05:15:44.937Z,100.00
2023-04-10T05:17:07.534Z,100.00
2023-04-10T05:18:26.085Z,100.00
2023-04-10T05:19:51.942Z,100.00
2023-04-10T05:21:23.500Z,100.00
2023-04-10T05:22:41.737Z,100.00
2023-04-10T05:24:02.739Z,100.00
2023-04-10T05:25:34.297Z,100.00
2023-04-10T05:26:52.779Z,100.00
2023-04-10T05:28:18.597Z,100.00
2023-04-10T05:29:36.574Z,100.00
2023-04-10T05:30:52.434Z,100.00
2023-04-10T05:32:10.185Z,100.00
2023-04-10T05:33:31.062Z,100.00
2023-04-10T05:34:57.828Z,100.00
2023-04-10T05:36:23.152Z,100.00
2023-04-10T05:37:44.027Z,100.00
2023-04-10T05:39:08.626Z,100.00
2023-04-10T05:40:29.384Z,100.00
2023-04-10T05:41:52.091Z,100.00
2023-04-10T05:43:26.746Z,100.00
2023-04-10T05:44:36.476Z,100.00
2023-04-10T05:45:56.305Z,100.00
2023-04-10T05:47:19.833Z,100.00
2023-04-10T05:48:31.869Z,100.00
2023-04-10T05:49:51.594Z,100.00
2023-04-10T05:51:14.395Z,100.00
2023-04-10T05:52:52.201Z,100.00
2023-04-10T05:54:17.773Z,100.00
2023-04-10T05:55:32.162Z,100.00
2023-04-10T05:56:59.395Z,100.00
2023-04-10T05:58:10.922Z,100.00
2023-04-10T05:59:35.759Z,100.00
2023-04-10T06:01:01.560Z,100.00
2023-04-10T06:02:39.805Z,100.00
2023-04-10T06:03:46.374Z,100.00
2023-04-10T06:04:50.259Z,100.00
2023-04-10T06:05:53.640Z,100.00
2023-04-10T06:06:56.161Z,100.00
2023-04-10T06:07:58.727Z,100.00
2023-04-10T06:09:01.329Z,100.00
2023-04-10T06:10:04.214Z,100.00
2023-04-10T06:11:10.804Z,100.00
2023-04-10T06:12:13.449Z,100.00
2023-04-10T06:13:16.810Z,100.00
2023-04-10T06:14:22.101Z,100.00
2023-04-10T06:15:26.420Z,100.00
2023-04-10T06:16:29.053Z,100.00
2023-04-10T06:17:31.636Z,100.00
2023-04-10T06:18:34.335Z,100.00
2023-04-10T06:19:36.737Z,100.00
2023-04-10T06:20:39.255Z,100.00
2023-04-10T06:21:41.771Z,100.00
2023-04-10T06:22:44.299Z,100.00
2023-04-10T06:23:47.055Z,100.00
2023-04-10T06:24:49.583Z,100.00
2023-04-10T06:25:52.210Z,100.00
2023-04-10T06:26:54.617Z,100.00
2023-04-10T06:27:57.382Z,100.00
2023-04-10T06:29:00.498Z,100.00
2023-04-10T06:30:03.257Z,100.00
2023-04-10T06:31:09.159Z,100.00
2023-04-10T06:32:14.782Z,100.00
2023-04-10T06:33:17.309Z,100.00
2023-04-10T06:34:21.139Z,100.00
2023-04-10T06:35:37.815Z,100.00
2023-04-10T06:36:40.821Z,100.00
2023-04-10T06:37:43.833Z,100.00
2023-04-10T06:38:46.473Z,100.00
2023-04-10T06:39:49.361Z,100.00
2023-04-10T06:40:51.873Z,100.00
2023-04-10T06:41:54.535Z,100.00
2023-04-10T06:43:23.188Z,100.00
2023-04-10T06:44:25.713Z,100.00
2023-04-10T06:45:28.240Z,100.00
2023-04-10T06:46:30.913Z,100.00
2023-04-10T06:47:33.664Z,100.00
2023-04-10T06:48:36.279Z,100.00
2023-04-10T06:49:38.793Z,100.00
2023-04-10T06:50:41.435Z,100.00
2023-04-10T06:51:45.885Z,100.00
2023-04-10T06:52:48.659Z,100.00
2023-04-10T06:53:51.156Z,100.00
2023-04-10T06:54:53.684Z,100.00
2023-04-10T06:55:57.185Z,100.00
2023-04-10T06:56:59.680Z,100.00
2023-04-10T06:58:02.110Z,100.00
2023-04-10T06:59:06.534Z,100.00
2023-04-10T07:00:09.641Z,100.00
2023-04-10T07:01:12.184Z,100.00
2023-04-10T07:02:14.750Z,100.00
2023-04-10T07:03:17.242Z,100.00
2023-04-10T07:04:19.844Z,100.00
2023-04-10T07:05:22.498Z,100.00
2023-04-10T07:06:25.008Z,100.00
2023-04-10T07:07:28.608Z,100.00
2023-04-10T07:08:31.126Z,100.00
2023-04-10T07:09:33.526Z,97.45
2023-04-10T07:10:36.407Z,97.53
2023-04-10T07:11:38.939Z,93.72
2023-04-10T07:12:41.449Z,94.38
2023-04-10T07:13:43.851Z,95.96
2023-04-10T07:14:46.262Z,96.68
2023-04-10T07:15:48.771Z,91.33
2023-04-10T07:16:51.486Z,86.47
2023-04-10T07:17:53.986Z,82.08
2023-04-10T07:18:56.850Z,80.36
2023-04-10T07:19:59.573Z,79.15
2023-04-10T07:21:02.454Z,73.68
2023-04-10T07:22:04.982Z,69.58
2023-04-10T07:23:07.502Z,67.80
2023-04-10T07:24:09.904Z,65.87
2023-04-10T07:25:12.442Z,62.02
2023-04-10T07:26:15.063Z,59.91
2023-04-10T07:27:17.576Z,60.05
2023-04-10T07:28:19.979Z,59.57
2023-04-10T07:29:22.383Z,59.75
2023-04-10T07:30:24.906Z,62.46
2023-04-10T07:31:28.262Z,65.92
2023-04-10T07:32:31.038Z,66.54
2023-04-10T07:33:33.691Z,68.11
2023-04-10T07:34:36.784Z,71.16
2023-04-10T07:35:39.223Z,74.12
2023-04-10T07:36:41.709Z,73.93
2023-04-10T07:37:44.362Z,76.55
2023-04-10T07:38:46.993Z,78.10
2023-04-10T07:39:49.391Z,78.57
2023-04-10T07:41:01.275Z,80.96
2023-04-10T07:42:03.923Z,86.07
2023-04-10T07:43:06.320Z,87.24
2023-04-10T07:44:09.071Z,90.30
2023-04-10T07:45:11.710Z,90.42
2023-04-10T07:46:14.420Z,88.84
2023-04-10T07:47:16.991Z,90.49
2023-04-10T07:48:19.640Z,88.23
2023-04-10T07:49:22.998Z,86.64
2023-04-10T07:50:25.797Z,86.25
2023-04-10T07:51:29.150Z,86.38
2023-04-10T07:52:31.657Z,84.22
2023-04-10T07:53:34.158Z,84.86
2023-04-10T07:54:36.826Z,83.19
2023-04-10T07:55:43.548Z,82.28
2023-04-10T07:56:46.174Z,82.55
2023-04-10T07:57:52.397Z,82.16
2023-04-10T07:58:55.253Z,80.32
2023-04-10T07:59:58.037Z,79.73
2023-04-10T08:01:00.566Z,79.20
2023-04-10T08:02:03.207Z,79.11
2023-04-10T08:03:06.817Z,79.01
2023-04-10T08:04:09.703Z,79.72
2023-04-10T08:05:12.468Z,77.69
2023-04-10T08:06:15.087Z,77.46
2023-04-10T08:07:21.445Z,79.54
2023-04-10T08:08:23.854Z,78.12
2023-04-10T08:09:26.491Z,77.66
2023-04-10T08:10:29.008Z,77.32
2023-04-10T08:11:35.283Z,79.78
2023-04-10T08:12:39.094Z,80.64
2023-04-10T08:13:41.485Z,81.34
2023-04-10T08:14:45.109Z,78.04
2023-04-10T08:15:47.609Z,77.74
2023-04-10T08:16:50.138Z,78.81
2023-04-10T08:17:54.013Z,78.94
2023-04-10T08:18:58.056Z,79.48
2023-04-10T08:20:00.700Z,77.15
2023-04-10T08:21:03.227Z,77.60
2023-04-10T08:22:06.091Z,77.62
2023-04-10T08:23:19.642Z,75.37
2023-04-10T08:24:23.492Z,76.55
2023-04-10T08:25:26.010Z,74.08
2023-04-10T08:26:29.404Z,70.39
2023-04-10T08:27:31.894Z,69.14
2023-04-10T08:28:34.417Z,68.68
2023-04-10T08:29:36.824Z,69.24
2023-04-10T08:30:39.566Z,68.64
2023-04-10T08:31:42.221Z,66.48
2023-04-10T08:32:44.666Z,67.32
2023-04-10T08:33:47.860Z,66.68
2023-04-10T08:34:51.346Z,67.75
2023-04-10T08:35:54.008Z,68.46
2023-04-10T08:36:57.353Z,67.93
2023-04-10T08:38:12.292Z,67.02
2023-04-10T08:39:16.310Z,67.76
2023-04-10T08:40:18.828Z,67.81
2023-04-10T08:41:22.203Z,68.53
2023-04-10T08:42:26.048Z,69.94
2023-04-10T08:43:28.908Z,69.92
2023-04-10T08:44:31.434Z,69.13
2023-04-10T08:45:34.084Z,70.29
2023-04-10T08:46:42.158Z,68.48
2023-04-10T08:47:48.295Z,68.67
2023-04-10T08:49:00.838Z,68.86
2023-04-10T08:50:07.236Z,68.32
2023-04-10T08:51:19.801Z,68.46
2023-04-10T08:52:25.795Z,67.33
2023-04-10T08:53:31.191Z,66.76
2023-04-10T08:54:36.124Z,67.13
2023-04-10T08:55:40.580Z,65.99
2023-04-10T08:56:47.174Z,65.40
2023-04-10T08:58:00.571Z,65.47
2023-04-10T08:59:04.206Z,65.45
2023-04-10T09:01:30.043Z,63.75
2023-04-10T09:02:32.646Z,63.68
2023-04-10T09:03:35.622Z,62.06
2023-04-10T09:04:38.469Z,62.12
2023-04-10T09:05:41.184Z,61.69
2023-04-10T09:06:43.940Z,61.34
2023-04-10T09:07:46.449Z,61.24
2023-04-10T09:08:48.976Z,61.10
2023-04-10T09:09:51.480Z,59.43
2023-04-10T09:10:54.558Z,59.62
2023-04-10T09:12:01.549Z,59.20
2023-04-10T09:13:04.346Z,60.16
2023-04-10T09:14:22.097Z,59.51
2023-04-10T09:15:24.728Z,60.17
2023-04-10T09:16:30.485Z,58.80
2023-04-10T09:17:33.915Z,59.87
2023-04-10T09:18:44.290Z,59.20
2023-04-10T09:19:54.502Z,59.73
2023-04-10T09:21:07.084Z,58.16
2023-04-10T09:22:11.287Z,57.87
2023-04-10T09:23:22.328Z,58.81
2023-04-10T09:24:26.199Z,56.83
2023-04-10T09:25:33.248Z,56.82
2023-04-10T09:26:36.615Z,56.64
2023-04-10T09:27:40.491Z,57.29
2023-04-10T09:29:02.575Z,56.15
2023-04-10T09:30:06.836Z,55.58
2023-04-10T09:31:35.968Z,55.30
2023-04-10T09:32:46.763Z,54.87
2023-04-10T09:33:49.093Z,55.37
2023-04-10T09:34:58.577Z,54.89
2023-04-10T09:36:01.528Z,55.84
2023-04-10T09:37:03.993Z,55.38
2023-04-10T09:38:22.053Z,54.25
2023-04-10T09:39:36.144Z,53.92
2023-04-10T09:40:38.663Z,53.88
2023-04-10T09:41:51.688Z,54.04
2023-04-10T09:42:56.225Z,53.22
2023-04-10T09:44:20.186Z,52.07
2023-04-10T09:45:23.133Z,51.97
2023-04-10T09:46:28.912Z,51.37
2023-04-10T09:47:31.897Z,51.69
2023-04-10T09:48:34.582Z,50.66
2023-04-10T09:49:48.434Z,47.76
2023-04-10T09:50:51.507Z,45.65
2023-04-10T09:51:53.929Z,45.13
2023-04-10T09:52:59.077Z,43.57
2023-04-10T09:54:03.045Z,42.25
2023-04-10T09:55:08.680Z,40.22
2023-04-10T09:56:11.670Z,39.46
2023-04-10T09:57:20.551Z,38.73
2023-04-10T09:58:25.373Z,38.82
2023-04-10T09:59:27.990Z,38.38
2023-04-10T10:00:30.392Z,40.03
2023-04-10T10:01:37.297Z,39.85
2023-04-10T10:02:40.644Z,40.17
2023-04-10T10:03:44.109Z,39.59
2023-04-10T10:04:48.264Z,41.11
2023-04-10T10:05:51.924Z,40.70
2023-04-10T10:06:55.000Z,41.94
2023-04-10T10:07:58.121Z,41.30
2023-04-10T10:09:05.342Z,40.96
2023-04-10T10:10:11.101Z,40.04
2023-04-10T10:11:15.888Z,40.09
2023-04-10T10:12:40.597Z,40.80
2023-04-10T10:13:57.078Z,41.37
2023-04-10T10:15:19.965Z,42.21
2023-04-10T10:16:25.870Z,42.03
2023-04-10T10:17:34.872Z,43.21
2023-04-10T10:18:45.887Z,43.09
2023-04-10T10:20:02.482Z,42.42
2023-04-10T10:21:05.689Z,42.15
2023-04-10T10:22:09.888Z,42.89
2023-04-10T10:23:13.735Z,42.65
2023-04-10T10:24:17.232Z,42.08
2023-04-10T10:25:22.986Z,41.17
2023-04-10T10:26:25.857Z,40.15
2023-04-10T10:27:31.973Z,41.85
2023-04-10T10:28:36.175Z,42.58
2023-04-10T10:29:39.776Z,43.42
2023-04-10T10:30:42.668Z,42.86
2023-04-10T10:31:47.174Z,42.62
2023-04-10T10:32:51.087Z,43.01
2023-04-10T10:33:54.692Z,42.50
2023-04-10T10:34:57.780Z,42.28
2023-04-10T10:36:01.510Z,42.13
2023-04-10T10:37:05.225Z,41.45
2023-04-10T10:38:08.343Z,41.67
2023-04-10T10:39:27.544Z,41.90
2023-04-10T10:40:41.507Z,42.29
2023-04-10T10:41:54.347Z,42.50
2023-04-10T10:43:19.869Z,42.00
2023-04-10T10:44:43.144Z,43.43
2023-04-10T10:45:57.621Z,43.58
2023-04-10T10:47:29.248Z,42.59
2023-04-10T10:48:31.761Z,42.52
2023-04-10T10:49:57.087Z,43.20
2023-04-10T10:51:02.284Z,42.54
2023-04-10T10:52:04.994Z,41.49
2023-04-10T10:53:07.513Z,41.64
2023-04-10T10:54:33.193Z,40.57
2023-04-10T10:55:35.724Z,40.34
2023-04-10T10:56:38.243Z,40.62
2023-04-10T10:57:47.604Z,40.29
2023-04-10T10:58:59.840Z,41.69
2023-04-10T11:00:02.611Z,41.37
2023-04-10T11:01:08.507Z,40.71
2023-04-10T11:02:19.063Z,40.75
2023-04-10T11:03:22.671Z,42.07
2023-04-10T11:04:48.461Z,42.59
2023-04-10T11:06:13.042Z,43.01
2023-04-10T11:07:16.773Z,42.66
2023-04-10T11:08:47.667Z,43.81
2023-04-10T11:09:54.930Z,43.68
2023-04-10T11:11:08.066Z,45.58
2023-04-10T11:12:10.887Z,45.90
2023-04-10T11:13:17.984Z,45.29
2023-04-10T11:14:21.618Z,45.24
2023-04-10T11:15:25.531Z,45.41
2023-04-10T11:16:31.738Z,46.18
2023-04-10T11:17:51.403Z,45.93
2023-04-10T11:19:06.337Z,46.01
2023-04-10T11:20:17.013Z,46.13
2023-04-10T11:21:23.401Z,47.21
2023-04-10T11:22:26.021Z,47.45
2023-04-10T11:23:28.566Z,46.60
2023-04-10T11:25:00.732Z,46.64
2023-04-10T11:26:03.699Z,46.60
2023-04-10T11:27:07.188Z,46.94
2023-04-10T11:28:09.695Z,46.24
2023-04-10T11:29:17.885Z,46.46
2023-04-10T11:30:30.585Z,46.33
2023-04-10T11:31:34.358Z,44.52
2023-04-10T11:32:43.450Z,43.94
2023-04-10T11:33:48.002Z,42.94
2023-04-10T11:34:50.615Z,41.64
2023-04-10T11:35:53.168Z,41.96
2023-04-10T11:36:55.898Z,41.39
2023-04-10T11:38:11.626Z,41.36
2023-04-10T11:39:18.752Z,40.48
2023-04-10T11:40:21.577Z,40.28
2023-04-10T11:41:32.158Z,39.38
2023-04-10T11:42:34.656Z,39.75
2023-04-10T11:43:37.301Z,39.38
2023-04-10T11:44:40.922Z,39.11
2023-04-10T11:45:43.616Z,37.98
2023-04-10T11:46:47.421Z,38.87
2023-04-10T11:47:54.130Z,38.51
2023-04-10T11:49:01.474Z,38.30
2023-04-10T11:50:04.186Z,39.02
2023-04-10T11:51:08.768Z,38.33
2023-04-10T11:52:11.268Z,39.27
2023-04-10T11:53:21.626Z,38.62
2023-04-10T11:54:29.158Z,38.55
2023-04-10T11:55:38.391Z,38.80
2023-04-10T11:56:42.346Z,38.18
2023-04-10T11:57:46.127Z,37.91
2023-04-10T11:58:51.165Z,37.75
2023-04-10T11:59:53.752Z,38.01
2023-04-10T12:01:01.674Z,38.70
2023-04-10T12:02:14.731Z,38.32
2023-04-10T12:03:17.737Z,38.12
2023-04-10T12:04:21.989Z,37.42
2023-04-10T12:05:24.602Z,37.66
2023-04-10T12:06:31.312Z,36.71
2023-04-10T12:07:33.834Z,37.74
2023-04-10T12:08:46.099Z,37.59
2023-04-10T12:09:56.994Z,38.47
2023-04-10T12:11:00.479Z,38.29
2023-04-10T12:12:07.660Z,38.57
2023-04-10T12:13:25.206Z,39.19
2023-04-10T12:14:33.120Z,40.37
2023-04-10T12:15:35.694Z,40.12
2023-04-10T12:16:38.521Z,39.69
2023-04-10T12:17:41.439Z,40.43
2023-04-10T12:18:45.417Z,38.89
2023-04-10T12:19:47.884Z,38.63
2023-04-10T12:20:51.964Z,38.79
2023-04-10T12:21:55.223Z,39.33
2023-04-10T12:23:01.382Z,38.85
2023-04-10T12:24:05.527Z,40.15
2023-04-10T12:25:12.382Z,40.21
2023-04-10T12:26:16.804Z,39.73
2023-04-10T12:27:25.579Z,39.40
2023-04-10T12:28:28.093Z,40.18
2023-04-10T12:29:30.608Z,39.40
2023-04-10T12:30:33.134Z,40.65
2023-04-10T12:31:37.194Z,39.52
2023-04-10T12:32:39.994Z,39.12
2023-04-10T12:33:46.580Z,38.76
2023-04-10T12:34:52.829Z,39.45
2023-04-10T12:35:55.477Z,40.29
2023-04-10T12:36:58.219Z,40.79
2023-04-10T12:38:00.741Z,39.80
2023-04-10T12:39:04.610Z,41.33
2023-04-10T12:40:07.944Z,41.38
2023-04-10T12:41:11.499Z,41.68
2023-04-10T12:42:20.913Z,41.29
2023-04-10T12:43:38.424Z,40.63
2023-04-10T12:44:54.759Z,39.53
2023-04-10T12:45:57.999Z,39.57
2023-04-10T12:47:02.008Z,39.84
2023-04-10T12:48:04.646Z,38.73
2023-04-10T12:49:10.109Z,39.16
2023-04-10T12:50:15.633Z,39.48
2023-04-10T12:51:18.272Z,39.11
2023-04-10T12:52:23.575Z,40.36
2023-04-10T12:53:27.397Z,39.71
2023-04-10T12:54:37.365Z,40.07
2023-04-10T12:55:40.241Z,41.40
2023-04-10T12:56:44.329Z,40.44
2023-04-10T12:57:49.006Z,40.81
2023-04-10T12:59:09.161Z,40.33
2023-04-10T13:00:13.956Z,40.91
2023-04-10T13:01:16.496Z,40.57
2023-04-10T13:02:21.386Z,40.73
2023-04-10T13:03:24.247Z,40.68
2023-04-10T13:04:27.169Z,40.64
2023-04-10T13:05:30.161Z,40.85
2023-04-10T13:06:32.917Z,40.10
2023-04-10T13:07:37.423Z,41.32
2023-04-10T13:08:40.001Z,41.16
2023-04-10T13:09:42.879Z,41.21
2023-04-10T13:10:45.528Z,41.77
2023-04-10T13:11:50.243Z,41.02
2023-04-10T13:12:54.279Z,41.41
2023-04-10T13:13:56.802Z,41.30
2023-04-10T13:14:59.918Z,40.68
2023-04-10T13:16:02.623Z,40.69
2023-04-10T13:17:05.208Z,41.61
2023-04-10T13:18:08.394Z,42.20
2023-04-10T13:19:10.967Z,41.66
2023-04-10T13:20:13.727Z,40.95
2023-04-10T13:21:19.964Z,41.59
2023-04-10T13:22:22.726Z,42.67
2023-04-10T13:23:25.387Z,42.31
2023-04-10T13:24:27.888Z,42.86
2023-04-10T13:25:33.851Z,42.33
2023-04-10T13:26:36.403Z,42.86
2023-04-10T13:27:38.946Z,43.15
2023-04-10T13:28:41.452Z,42.95
2023-04-10T13:29:43.978Z,44.09
2023-04-10T13:30:46.495Z,43.31
2023-04-10T13:31:50.673Z,43.97
2023-04-10T13:32:53.105Z,44.32
2023-04-10T13:33:55.670Z,43.90
2023-04-10T13:34:58.020Z,43.99
2023-04-10T13:36:00.674Z,43.80
2023-04-10T13:37:03.379Z,44.69
2023-04-10T13:38:06.916Z,44.68
2023-04-10T13:39:09.316Z,44.94
2023-04-10T13:40:12.061Z,45.60
2023-04-10T13:41:14.593Z,45.45
2023-04-10T13:42:17.223Z,45.36
2023-04-10T13:43:19.750Z,46.29
2023-04-10T13:44:22.268Z,46.19
2023-04-10T13:45:25.039Z,45.48
2023-04-10T13:46:27.956Z,44.99
2023-04-10T13:47:30.723Z,45.07
2023-04-10T13:48:39.978Z,45.55
2023-04-10T13:49:44.105Z,45.04
2023-04-10T13:50:46.878Z,45.19
2023-04-10T13:51:49.388Z,44.69
2023-04-10T13:52:53.408Z,44.42
2023-04-10T13:53:56.233Z,44.00
2023-04-10T13:54:58.753Z,44.58
2023-04-10T13:56:01.288Z,44.11
2023-04-10T13:57:03.974Z,44.27
2023-04-10T13:58:07.271Z,43.87
2023-04-10T13:59:10.043Z,43.35
2023-04-10T14:00:12.915Z,43.93
2023-04-10T14:01:15.468Z,43.50
2023-04-10T14:02:18.016Z,43.17
2023-04-10T14:03:20.800Z,43.40
2023-04-10T14:04:23.366Z,44.31
2023-04-10T14:05:25.883Z,43.91
2023-04-10T14:06:28.411Z,43.06
2023-04-10T14:07:31.038Z,43.90
2023-04-10T14:08:33.565Z,43.58
2023-04-10T14:09:35.966Z,44.05
2023-04-10T14:10:39.696Z,43.87
2023-04-10T14:11:42.200Z,43.68
2023-04-10T14:12:44.486Z,42.85
2023-04-10T14:13:47.029Z,42.78
2023-04-10T14:14:49.520Z,43.47
2023-04-10T14:15:54.565Z,43.30